Time;durP1;ratioP1;P1;durP2;ratioP2;P2;SDS_P1;SDS_P2;PMS_P1;PMS_P2;Temp;Humidity;BMP_temperature;BMP_pressure;BME280_temperature;BME280_humidity;BME280_pressure;Samples;Min_cycle;Max_cycle;Signal;HPM_P1;HPM_P2
2023/10/30 00:01:50;;;;;;;1.83;0.68;;;;;;;;;;5118540;28;20047;-83
2023/10/30 00:04:16;;;;;;;1.90;0.75;;;;;;;;;;5118012;28;20122;-83
2023/10/30 00:06:42;;;;;;;1.30;0.50;;;;;;;;;;5118288;28;20052;-83
2023/10/30 00:09:08;;;;;;;1.92;0.60;;;;;;;;;;5118868;28;20047;-83
2023/10/30 00:11:34;;;;;;;2.15;0.70;;;;;;;;;;5118611;28;20053;-83
2023/10/30 00:14:00;;;;;;;2.38;0.77;;;;;;;;;;5099199;28;20558;-83
2023/10/30 00:16:27;;;;;;;1.10;0.60;;;;;;;;;;5118321;28;20040;-83
2023/10/30 00:18:54;;;;;;;1.25;0.65;;;;;;;;;;5120781;28;20043;-82
2023/10/30 00:21:20;;;;;;;1.38;0.68;;;;;;;;;;5114752;28;20108;-83
2023/10/30 00:23:46;;;;;;;2.30;0.73;;;;;;;;;;5119642;28;20118;-83
2023/10/30 00:26:12;;;;;;;1.67;0.80;;;;;;;;;;5119886;28;20101;-83
2023/10/30 00:28:38;;;;;;;1.15;0.65;;;;;;;;;;5117287;28;20032;-83
2023/10/30 00:31:05;;;;;;;2.85;0.80;;;;;;;;;;5116345;28;20458;-83
2023/10/30 00:33:31;;;;;;;1.30;0.73;;;;;;;;;;5117870;28;20122;-83
2023/10/30 00:35:58;;;;;;;2.28;0.85;;;;;;;;;;5119112;28;20067;-83
2023/10/30 00:38:24;;;;;;;3.67;1.05;;;;;;;;;;5120817;28;20490;-83
2023/10/30 00:40:50;;;;;;;1.27;0.90;;;;;;;;;;5119049;28;20045;-83
2023/10/30 00:43:16;;;;;;;2.35;0.80;;;;;;;;;;5119558;28;20085;-83
2023/10/30 00:45:42;;;;;;;1.02;0.77;;;;;;;;;;5116634;28;20035;-83
2023/10/30 00:48:08;;;;;;;2.78;0.70;;;;;;;;;;5101126;28;20043;-83
2023/10/30 00:50:35;;;;;;;2.03;0.90;;;;;;;;;;5114145;28;20070;-83
2023/10/30 00:53:01;;;;;;;1.65;0.85;;;;;;;;;;5121959;28;20043;-83
2023/10/30 00:55:26;;;;;;;1.25;0.90;;;;;;;;;;5118310;28;20031;-83
2023/10/30 00:57:52;;;;;;;0.57;0.55;;;;;;;;;;5099771;28;20047;-83
2023/10/30 01:00:19;;;;;;;0.70;0.60;;;;;;;;;;5117234;28;22562;-83
2023/10/30 01:02:45;;;;;;;1.88;0.70;;;;;;;;;;5116907;28;20047;-83
2023/10/30 01:05:11;;;;;;;2.95;1.00;;;;;;;;;;5098857;28;20522;-83
2023/10/30 01:07:37;;;;;;;2.25;0.80;;;;;;;;;;5100102;28;20038;-83
2023/10/30 01:10:03;;;;;;;1.25;0.75;;;;;;;;;;5116230;28;20038;-83
2023/10/30 01:12:29;;;;;;;1.70;0.75;;;;;;;;;;5115017;28;20047;-83
2023/10/30 01:14:55;;;;;;;1.33;0.75;;;;;;;;;;5110437;28;20083;-83
2023/10/30 01:17:21;;;;;;;1.05;0.65;;;;;;;;;;5099125;28;20048;-83
2023/10/30 01:19:47;;;;;;;1.40;0.90;;;;;;;;;;5116516;28;20050;-83
2023/10/30 01:22:13;;;;;;;1.40;0.80;;;;;;;;;;5117206;28;20414;-83
2023/10/30 01:24:39;;;;;;;1.10;0.68;;;;;;;;;;5118103;28;20115;-83
2023/10/30 01:27:06;;;;;;;2.05;0.70;;;;;;;;;;5118175;28;20041;-82
2023/10/30 01:29:32;;;;;;;4.22;1.00;;;;;;;;;;5116818;28;20063;-83
2023/10/30 01:31:58;;;;;;;1.67;1.00;;;;;;;;;;5100114;28;20039;-83
2023/10/30 01:34:24;;;;;;;2.20;0.65;;;;;;;;;;5117905;28;20103;-83
2023/10/30 01:36:50;;;;;;;2.75;0.70;;;;;;;;;;5118229;28;20379;-83
2023/10/30 01:39:18;;;;;;;4.30;1.40;;;;;;;;;;5116464;28;20153;-83
2023/10/30 01:41:44;;;;;;;1.75;0.90;;;;;;;;;;5117880;28;20152;-83
2023/10/30 01:44:10;;;;;;;2.40;0.93;;;;;;;;;;5114024;28;20040;-83
2023/10/30 01:46:36;;;;;;;1.88;1.10;;;;;;;;;;5117245;28;20470;-83
2023/10/30 01:49:02;;;;;;;2.70;1.15;;;;;;;;;;5116684;28;20039;-83
2023/10/30 01:51:28;;;;;;;3.67;1.65;;;;;;;;;;5118203;28;20050;-83
2023/10/30 01:53:54;;;;;;;2.70;0.82;;;;;;;;;;5116341;28;20112;-83
2023/10/30 01:56:20;;;;;;;1.40;0.85;;;;;;;;;;5115131;28;20048;-83
2023/10/30 01:58:46;;;;;;;2.65;0.77;;;;;;;;;;5114269;28;20036;-83
2023/10/30 02:01:13;;;;;;;3.80;0.80;;;;;;;;;;5096172;28;20398;-84
2023/10/30 02:03:39;;;;;;;2.95;0.80;;;;;;;;;;5095588;28;20088;-84
2023/10/30 02:06:05;;;;;;;2.58;1.13;;;;;;;;;;5113686;28;20080;-83
2023/10/30 02:08:31;;;;;;;3.08;1.10;;;;;;;;;;5110406;28;20036;-83
2023/10/30 02:10:57;;;;;;;4.82;1.05;;;;;;;;;;5113055;28;20031;-84
2023/10/30 02:13:23;;;;;;;1.45;0.90;;;;;;;;;;5113358;28;20043;-83
2023/10/30 02:15:49;;;;;;;2.67;0.70;;;;;;;;;;5114429;28;20097;-83
2023/10/30 02:18:15;;;;;;;5.28;0.88;;;;;;;;;;5114706;28;20055;-82
2023/10/30 02:20:41;;;;;;;3.60;1.83;;;;;;;;;;5115946;28;20043;-82
2023/10/30 02:23:07;;;;;;;3.30;0.98;;;;;;;;;;5116296;28;20418;-83
2023/10/30 02:25:33;;;;;;;4.28;0.90;;;;;;;;;;5095686;28;20043;-83
2023/10/30 02:27:59;;;;;;;2.58;0.90;;;;;;;;;;5112528;28;20051;-83
2023/10/30 02:30:26;;;;;;;3.55;1.45;;;;;;;;;;5108693;28;20495;-83
2023/10/30 02:32:52;;;;;;;5.25;0.93;;;;;;;;;;5115626;28;20059;-83
2023/10/30 02:35:18;;;;;;;4.00;0.82;;;;;;;;;;5115949;28;20066;-83
2023/10/30 02:37:45;;;;;;;5.55;1.15;;;;;;;;;;5115459;28;20044;-83
2023/10/30 02:40:11;;;;;;;4.00;0.98;;;;;;;;;;5112150;28;20036;-83
2023/10/30 02:42:37;;;;;;;3.95;1.08;;;;;;;;;;5114476;28;20061;-84
2023/10/30 02:45:04;;;;;;;3.50;0.95;;;;;;;;;;5113847;28;20040;-84
2023/10/30 02:47:30;;;;;;;3.13;1.00;;;;;;;;;;5115063;28;20058;-84
2023/10/30 02:49:56;;;;;;;2.78;0.98;;;;;;;;;;5115200;28;20039;-84
2023/10/30 02:52:22;;;;;;;4.47;1.10;;;;;;;;;;5113357;28;20631;-84
2023/10/30 02:54:48;;;;;;;3.30;1.30;;;;;;;;;;5108301;28;20039;-84
2023/10/30 02:57:14;;;;;;;1.67;1.17;;;;;;;;;;5112572;28;20070;-84
2023/10/30 02:59:40;;;;;;;5.07;1.50;;;;;;;;;;5113711;28;20039;-84
2023/10/30 03:02:07;;;;;;;3.30;0.80;;;;;;;;;;5113817;28;20040;-84
2023/10/30 03:04:33;;;;;;;3.35;1.05;;;;;;;;;;5113985;28;20055;-84
2023/10/30 03:06:59;;;;;;;3.70;0.95;;;;;;;;;;5113125;28;20036;-84
2023/10/30 03:09:30;;;;;;;2.10;1.10;;;;;;;;;;5109400;28;20454;-84
2023/10/30 03:11:56;;;;;;;3.40;0.85;;;;;;;;;;5114842;28;20058;-84
2023/10/30 03:14:22;;;;;;;3.17;0.90;;;;;;;;;;5118001;28;20035;-84
2023/10/30 03:16:48;;;;;;;4.57;1.70;;;;;;;;;;5119032;28;20038;-84
2023/10/30 03:19:14;;;;;;;4.60;1.23;;;;;;;;;;5101360;28;20036;-84
2023/10/30 03:21:40;;;;;;;2.88;1.10;;;;;;;;;;5118659;28;20042;-84
2023/10/30 03:24:06;;;;;;;3.63;0.95;;;;;;;;;;5116852;28;20035;-84
2023/10/30 03:26:32;;;;;;;2.90;0.93;;;;;;;;;;5119337;28;20126;-84
2023/10/30 03:28:58;;;;;;;2.33;0.98;;;;;;;;;;5117380;28;20060;-84
2023/10/30 03:31:24;;;;;;;3.22;0.80;;;;;;;;;;5115719;28;20039;-84
2023/10/30 03:33:50;;;;;;;4.93;0.95;;;;;;;;;;5116368;28;20046;-84
2023/10/30 03:36:20;;;;;;;5.40;0.82;;;;;;;;;;5114851;28;20063;-84
2023/10/30 03:38:46;;;;;;;4.88;0.90;;;;;;;;;;5118761;28;20126;-84
2023/10/30 03:41:12;;;;;;;2.80;1.30;;;;;;;;;;5098604;28;20070;-84
2023/10/30 03:43:38;;;;;;;3.03;0.80;;;;;;;;;;5116127;28;20099;-84
2023/10/30 03:46:04;;;;;;;4.75;1.02;;;;;;;;;;5115278;28;20045;-84
2023/10/30 03:48:30;;;;;;;4.28;1.17;;;;;;;;;;5114710;28;20467;-85
2023/10/30 03:50:56;;;;;;;5.90;1.25;;;;;;;;;;5097018;28;20070;-84
2023/10/30 03:53:22;;;;;;;3.08;0.77;;;;;;;;;;5117258;28;20151;-84
2023/10/30 03:55:48;;;;;;;5.85;1.27;;;;;;;;;;5115558;28;20044;-84
2023/10/30 03:58:15;;;;;;;2.90;0.80;;;;;;;;;;5097306;28;20043;-84
2023/10/30 04:00:41;;;;;;;7.38;0.98;;;;;;;;;;5115505;28;20047;-84
2023/10/30 04:03:07;;;;;;;3.42;0.73;;;;;;;;;;5112834;28;20046;-84
2023/10/30 04:05:33;;;;;;;2.47;0.70;;;;;;;;;;5110661;28;20067;-84
2023/10/30 04:08:01;;;;;;;3.58;0.80;;;;;;;;;;5114763;28;20039;-84
2023/10/30 04:10:27;;;;;;;3.45;0.88;;;;;;;;;;5115205;28;20039;-85
2023/10/30 04:12:53;;;;;;;4.15;0.68;;;;;;;;;;5115461;28;20130;-84
2023/10/30 04:15:19;;;;;;;3.30;0.80;;;;;;;;;;5116218;28;20074;-84
2023/10/30 04:17:45;;;;;;;2.47;1.33;;;;;;;;;;5115456;28;20046;-83
2023/10/30 04:20:11;;;;;;;3.50;1.35;;;;;;;;;;5112310;28;20040;-84
2023/10/30 04:22:38;;;;;;;2.08;0.75;;;;;;;;;;5115860;28;20043;-84
2023/10/30 04:25:06;;;;;;;5.55;1.13;;;;;;;;;;5116247;28;20448;-84
2023/10/30 04:27:33;;;;;;;5.07;1.10;;;;;;;;;;5114563;28;20035;-84
2023/10/30 04:29:59;;;;;;;3.53;0.75;;;;;;;;;;5114873;28;20043;-84
2023/10/30 04:32:25;;;;;;;4.40;1.42;;;;;;;;;;5115506;28;20126;-84
2023/10/30 04:34:51;;;;;;;3.88;1.08;;;;;;;;;;5115642;28;20051;-84
2023/10/30 04:37:19;;;;;;;3.60;1.10;;;;;;;;;;5116125;28;20061;-84
2023/10/30 04:39:45;;;;;;;6.22;0.90;;;;;;;;;;5111071;28;20040;-84
2023/10/30 04:42:11;;;;;;;5.50;1.00;;;;;;;;;;5115913;28;20403;-84
2023/10/30 04:44:37;;;;;;;2.60;0.82;;;;;;;;;;5114303;28;20032;-84
2023/10/30 04:47:03;;;;;;;5.38;2.13;;;;;;;;;;5112526;28;20047;-84
2023/10/30 04:49:34;;;;;;;2.28;0.70;;;;;;;;;;5115575;28;20046;-84
2023/10/30 04:52:00;;;;;;;3.40;1.00;;;;;;;;;;5114278;28;20047;-84
2023/10/30 04:54:26;;;;;;;6.85;1.10;;;;;;;;;;5114220;28;20086;-84
2023/10/30 04:56:52;;;;;;;4.28;0.80;;;;;;;;;;5114051;28;20063;-84
2023/10/30 04:59:18;;;;;;;3.83;1.00;;;;;;;;;;5113120;28;20529;-84
2023/10/30 05:01:44;;;;;;;3.42;0.85;;;;;;;;;;5112579;28;20040;-84
2023/10/30 05:04:10;;;;;;;4.50;0.85;;;;;;;;;;5114254;28;20047;-84
2023/10/30 05:06:36;;;;;;;1.35;0.70;;;;;;;;;;5113622;28;20086;-84
2023/10/30 05:09:03;;;;;;;7.93;1.13;;;;;;;;;;5113564;28;20127;-84
2023/10/30 05:11:29;;;;;;;4.85;1.13;;;;;;;;;;5114056;28;20051;-84
2023/10/30 05:13:55;;;;;;;6.28;1.40;;;;;;;;;;5102634;28;20099;-84
2023/10/30 05:16:21;;;;;;;3.42;0.77;;;;;;;;;;5114089;28;20048;-84
2023/10/30 05:18:48;;;;;;;3.05;0.93;;;;;;;;;;5109647;28;20046;-84
2023/10/30 05:21:14;;;;;;;3.85;0.95;;;;;;;;;;5112588;28;20042;-84
2023/10/30 05:23:40;;;;;;;3.55;0.70;;;;;;;;;;5101914;28;20051;-84
2023/10/30 05:26:06;;;;;;;4.63;0.77;;;;;;;;;;5112369;28;20039;-84
2023/10/30 05:28:32;;;;;;;2.63;0.60;;;;;;;;;;5112536;28;20042;-84
2023/10/30 05:30:58;;;;;;;4.43;1.25;;;;;;;;;;5115041;28;20067;-84
2023/10/30 05:33:24;;;;;;;4.03;1.25;;;;;;;;;;5113083;28;20038;-84
2023/10/30 05:35:51;;;;;;;7.43;1.25;;;;;;;;;;5114589;28;20513;-84
2023/10/30 05:38:17;;;;;;;2.72;0.70;;;;;;;;;;5111186;28;20040;-84
2023/10/30 05:40:45;;;;;;;5.45;1.20;;;;;;;;;;5113033;28;20043;-84
2023/10/30 05:43:11;;;;;;;4.15;1.52;;;;;;;;;;5114102;28;20464;-84
2023/10/30 05:45:37;;;;;;;4.55;0.90;;;;;;;;;;5109138;28;20032;-83
2023/10/30 05:48:04;;;;;;;4.55;0.90;;;;;;;;;;5112882;28;20043;-84
2023/10/30 05:50:30;;;;;;;5.97;1.20;;;;;;;;;;5109736;28;20043;-84
2023/10/30 05:52:56;;;;;;;3.50;0.80;;;;;;;;;;5112549;28;20122;-84
2023/10/30 05:55:22;;;;;;;3.63;0.80;;;;;;;;;;5112368;28;20030;-84
2023/10/30 05:57:48;;;;;;;1.17;0.70;;;;;;;;;;5112104;28;20075;-84
2023/10/30 06:00:14;;;;;;;6.15;1.00;;;;;;;;;;5112774;28;20330;-84
2023/10/30 06:02:40;;;;;;;3.50;0.82;;;;;;;;;;5108177;28;20464;-85
2023/10/30 06:05:08;;;;;;;3.60;0.70;;;;;;;;;;5095516;28;20444;-84
2023/10/30 06:07:34;;;;;;;3.42;0.88;;;;;;;;;;5108410;28;20027;-85
2023/10/30 06:10:00;;;;;;;1.48;0.60;;;;;;;;;;5104151;28;20052;-85
2023/10/30 06:12:26;;;;;;;1.75;0.50;;;;;;;;;;5094062;28;20040;-84
2023/10/30 06:14:55;;;;;;;4.72;0.82;;;;;;;;;;5091307;28;20513;-82
2023/10/30 06:17:21;;;;;;;3.33;0.77;;;;;;;;;;5111623;28;20047;-84
2023/10/30 06:19:47;;;;;;;5.18;1.08;;;;;;;;;;5110899;28;20499;-84
2023/10/30 06:22:13;;;;;;;3.05;0.82;;;;;;;;;;5111530;28;20044;-84
2023/10/30 06:24:39;;;;;;;3.03;0.70;;;;;;;;;;5107596;28;20459;-84
2023/10/30 06:27:06;;;;;;;5.15;0.90;;;;;;;;;;5095635;28;20040;-84
2023/10/30 06:29:32;;;;;;;3.72;0.73;;;;;;;;;;5114579;28;20411;-84
2023/10/30 06:31:59;;;;;;;3.50;0.82;;;;;;;;;;5113067;28;20046;-85
2023/10/30 06:34:25;;;;;;;4.60;0.90;;;;;;;;;;5115850;28;20042;-84
2023/10/30 06:36:51;;;;;;;7.82;1.63;;;;;;;;;;5113610;28;20538;-84
2023/10/30 06:39:20;;;;;;;4.32;1.02;;;;;;;;;;5111025;28;20052;-85
2023/10/30 06:41:48;;;;;;;5.40;0.85;;;;;;;;;;5111591;28;20047;-84
2023/10/30 06:44:14;;;;;;;4.22;0.80;;;;;;;;;;5110600;28;20044;-85
2023/10/30 06:46:40;;;;;;;3.63;0.80;;;;;;;;;;5112359;28;20439;-84
2023/10/30 06:49:06;;;;;;;4.07;0.90;;;;;;;;;;5111464;28;20074;-84
2023/10/30 06:51:32;;;;;;;2.58;0.88;;;;;;;;;;5114704;28;20039;-85
2023/10/30 06:53:58;;;;;;;3.38;0.80;;;;;;;;;;5112947;28;20043;-81
2023/10/30 06:56:24;;;;;;;4.15;0.75;;;;;;;;;;5112394;28;20087;-81
2023/10/30 06:58:50;;;;;;;6.55;1.98;;;;;;;;;;5107547;28;20491;-82
2023/10/30 07:01:16;;;;;;;6.80;1.10;;;;;;;;;;5108045;28;20050;-82
2023/10/30 07:03:42;;;;;;;4.43;1.42;;;;;;;;;;5111841;28;20036;-82
2023/10/30 07:06:10;;;;;;;4.85;1.20;;;;;;;;;;5111797;28;20063;-80
2023/10/30 07:08:37;;;;;;;4.10;0.80;;;;;;;;;;5115663;27;20050;-80
2023/10/30 07:11:03;;;;;;;4.65;0.70;;;;;;;;;;5118423;28;20041;-81
2023/10/30 07:13:29;;;;;;;2.15;0.75;;;;;;;;;;5117504;28;20100;-81
2023/10/30 07:15:55;;;;;;;3.97;1.15;;;;;;;;;;5115567;28;20095;-82
2023/10/30 07:18:22;;;;;;;5.00;1.20;;;;;;;;;;5115396;28;20075;-81
2023/10/30 07:20:48;;;;;;;3.83;1.27;;;;;;;;;;5143017;27;20040;-82
2023/10/30 07:23:14;;;;;;;3.40;0.90;;;;;;;;;;5113405;28;20413;-82
2023/10/30 07:25:40;;;;;;;2.08;0.60;;;;;;;;;;5109353;28;20036;-82
2023/10/30 07:28:06;;;;;;;5.15;1.13;;;;;;;;;;5116366;28;20073;-82
2023/10/30 07:30:32;;;;;;;4.35;1.45;;;;;;;;;;5106964;28;20042;-82
2023/10/30 07:32:58;;;;;;;4.65;0.80;;;;;;;;;;5115446;28;20447;-82
2023/10/30 07:35:24;;;;;;;4.43;0.80;;;;;;;;;;5112260;28;20068;-80
2023/10/30 07:37:50;;;;;;;3.30;1.40;;;;;;;;;;5112320;28;20068;-82
2023/10/30 07:40:17;;;;;;;3.30;1.13;;;;;;;;;;5109613;28;20047;-82
2023/10/30 07:42:43;;;;;;;3.47;1.15;;;;;;;;;;5111964;28;20035;-82
2023/10/30 07:45:10;;;;;;;3.28;1.13;;;;;;;;;;5111579;28;20040;-82
2023/10/30 07:47:36;;;;;;;3.17;1.10;;;;;;;;;;5116939;28;20051;-82
2023/10/30 07:50:02;;;;;;;3.75;1.33;;;;;;;;;;5113529;28;20037;-82
2023/10/30 07:52:28;;;;;;;4.13;0.90;;;;;;;;;;5117288;28;20044;-82
2023/10/30 07:54:54;;;;;;;3.35;1.00;;;;;;;;;;5107914;28;20036;-82
2023/10/30 07:57:20;;;;;;;2.00;0.60;;;;;;;;;;5114463;28;20507;-82
2023/10/30 07:59:47;;;;;;;6.55;0.90;;;;;;;;;;5113173;28;20039;-82
2023/10/30 08:02:13;;;;;;;2.97;0.90;;;;;;;;;;5107025;28;20047;-83
2023/10/30 08:04:39;;;;;;;4.68;1.27;;;;;;;;;;5109785;27;20763;-83
2023/10/30 08:07:05;;;;;;;4.28;1.15;;;;;;;;;;5093760;28;20044;-82
2023/10/30 08:09:31;;;;;;;2.90;1.10;;;;;;;;;;5118207;28;20035;-82
2023/10/30 08:11:57;;;;;;;1.95;0.60;;;;;;;;;;5120139;28;20099;-82
2023/10/30 08:14:23;;;;;;;3.97;1.02;;;;;;;;;;5109514;28;20093;-82
2023/10/30 08:16:49;;;;;;;6.47;1.10;;;;;;;;;;5116720;28;20035;-83
2023/10/30 08:19:15;;;;;;;3.33;1.00;;;;;;;;;;5118627;28;20036;-82
2023/10/30 08:21:41;;;;;;;3.97;1.67;;;;;;;;;;5119784;28;20061;-82
2023/10/30 08:24:09;;;;;;;3.75;1.00;;;;;;;;;;5119639;28;20490;-82
2023/10/30 08:26:35;;;;;;;3.33;1.00;;;;;;;;;;5117869;28;20036;-83
2023/10/30 08:29:01;;;;;;;3.65;1.20;;;;;;;;;;5108901;28;20046;-84
2023/10/30 08:31:27;;;;;;;4.10;0.93;;;;;;;;;;5112989;27;20046;-85
2023/10/30 08:33:54;;;;;;;2.63;1.00;;;;;;;;;;5111665;28;20039;-83
2023/10/30 08:36:24;;;;;;;4.45;1.10;;;;;;;;;;5096329;28;20051;-84
2023/10/30 08:38:50;;;;;;;;;;;;;;;;;;5112278;28;20043;-84
2023/10/30 08:41:19;;;;;;;7.10;1.25;;;;;;;;;;5111049;28;20370;-84
2023/10/30 08:43:45;;;;;;;3.30;1.08;;;;;;;;;;5112501;28;20543;-84
2023/10/30 08:46:21;;;;;;;3.53;0.85;;;;;;;;;;5113845;28;20043;-84
2023/10/30 08:48:47;;;;;;;3.88;0.98;;;;;;;;;;5112616;28;20035;-83
2023/10/30 08:51:13;;;;;;;3.97;1.25;;;;;;;;;;5118982;28;20047;-83
2023/10/30 08:53:39;;;;;;;6.25;1.02;;;;;;;;;;5119296;28;20402;-83
2023/10/30 08:56:05;;;;;;;3.20;1.08;;;;;;;;;;5118532;28;20135;-84
2023/10/30 08:58:31;;;;;;;6.22;1.05;;;;;;;;;;5113790;28;20047;-83
2023/10/30 09:00:59;;;;;;;3.63;1.30;;;;;;;;;;5116473;28;20159;-82
2023/10/30 09:03:25;;;;;;;6.80;1.42;;;;;;;;;;5117024;28;20126;-81
2023/10/30 09:05:51;;;;;;;4.15;1.25;;;;;;;;;;5116465;28;20078;-80
2023/10/30 09:08:17;;;;;;;4.32;1.38;;;;;;;;;;5115761;28;20119;-81
2023/10/30 09:10:43;;;;;;;4.90;1.10;;;;;;;;;;5115309;28;20479;-81
2023/10/30 09:13:09;;;;;;;4.22;1.30;;;;;;;;;;5113387;28;20040;-81
2023/10/30 09:15:35;;;;;;;6.00;1.20;;;;;;;;;;5113570;28;20039;-81
2023/10/30 09:18:01;;;;;;;7.43;1.30;;;;;;;;;;5117156;28;20043;-81
2023/10/30 09:20:27;;;;;;;3.50;1.27;;;;;;;;;;5117507;28;20039;-81
2023/10/30 09:22:53;;;;;;;6.03;1.10;;;;;;;;;;5116140;28;20119;-81
2023/10/30 09:25:19;;;;;;;9.05;1.73;;;;;;;;;;5115327;28;20131;-81
2023/10/30 09:27:45;;;;;;;5.82;1.52;;;;;;;;;;5113383;28;20038;-81
2023/10/30 09:30:12;;;;;;;5.72;1.50;;;;;;;;;;5097803;28;20165;-81
2023/10/30 09:32:38;;;;;;;7.15;2.08;;;;;;;;;;5115396;28;20035;-81
2023/10/30 09:35:04;;;;;;;5.53;2.05;;;;;;;;;;5117572;28;20050;-81
2023/10/30 09:37:30;;;;;;;5.25;1.60;;;;;;;;;;5110319;28;20415;-81
2023/10/30 09:39:56;;;;;;;2.85;1.17;;;;;;;;;;5112336;28;20043;-81
2023/10/30 09:42:22;;;;;;;11.18;1.85;;;;;;;;;;5113709;27;20040;-80
2023/10/30 09:44:49;;;;;;;5.05;1.40;;;;;;;;;;5109353;28;20097;-80
2023/10/30 09:47:15;;;;;;;5.53;1.27;;;;;;;;;;5114814;28;20036;-80
2023/10/30 09:49:41;;;;;;;2.60;1.05;;;;;;;;;;5109603;28;20043;-81
2023/10/30 09:52:07;;;;;;;12.38;1.42;;;;;;;;;;5111168;28;20039;-81
2023/10/30 09:54:34;;;;;;;5.60;1.50;;;;;;;;;;5110681;28;20059;-84
2023/10/30 09:57:03;;;;;;;6.13;1.35;;;;;;;;;;5115951;28;20150;-83
2023/10/30 09:59:33;;;;;;;5.72;1.02;;;;;;;;;;5117482;28;20066;-83
2023/10/30 10:01:59;;;;;;;5.22;1.00;;;;;;;;;;5106529;28;20039;-84
2023/10/30 10:04:25;;;;;;;3.28;1.38;;;;;;;;;;5114567;28;20039;-83
2023/10/30 10:06:51;;;;;;;5.55;1.08;;;;;;;;;;5111668;28;20031;-83
2023/10/30 10:09:17;;;;;;;4.10;1.17;;;;;;;;;;5114181;28;20112;-83
2023/10/30 10:11:43;;;;;;;6.25;1.20;;;;;;;;;;5114610;28;20441;-83
2023/10/30 10:14:11;;;;;;;7.45;1.00;;;;;;;;;;5115459;28;20091;-83
2023/10/30 10:16:37;;;;;;;3.22;1.17;;;;;;;;;;5116128;28;20047;-84
2023/10/30 10:19:24;;;;;;;3.22;1.23;;;;;;;;;;5115821;28;20048;-83
2023/10/30 10:21:51;;;;;;;2.50;1.15;;;;;;;;;;5119302;28;20044;-84
2023/10/30 10:24:27;;;;;;;6.90;1.40;;;;;;;;;;5120727;28;20044;-82
2023/10/30 10:26:53;;;;;;;4.15;1.83;;;;;;;;;;5114446;28;20059;-84
2023/10/30 10:29:23;;;;;;;5.75;1.25;;;;;;;;;;5116204;28;20043;-84
2023/10/30 10:31:49;;;;;;;3.65;0.77;;;;;;;;;;5117989;28;20493;-84
2023/10/30 10:34:15;;;;;;;4.63;1.08;;;;;;;;;;5116468;28;20104;-84
2023/10/30 10:36:41;;;;;;;5.20;1.15;;;;;;;;;;5094565;28;20036;-84
2023/10/30 10:39:07;;;;;;;6.07;1.35;;;;;;;;;;5098301;28;20046;-85
2023/10/30 10:41:34;;;;;;;3.72;1.08;;;;;;;;;;5116645;28;20032;-84
2023/10/30 10:44:00;;;;;;;3.25;0.70;;;;;;;;;;5113531;28;20062;-84
2023/10/30 10:46:26;;;;;;;2.28;1.10;;;;;;;;;;5114857;28;20035;-83
2023/10/30 10:48:52;;;;;;;2.58;1.15;;;;;;;;;;5117911;28;20043;-84
2023/10/30 10:51:30;;;;;;;4.10;1.40;;;;;;;;;;5095396;28;20100;-84
2023/10/30 10:53:59;;;;;;;4.57;1.20;;;;;;;;;;5112642;27;20397;-85
2023/10/30 10:56:26;;;;;;;4.80;1.02;;;;;;;;;;5112586;28;20544;-84
2023/10/30 10:58:58;;;;;;;6.10;1.08;;;;;;;;;;5107460;28;20486;-85
2023/10/30 11:01:25;;;;;;;4.38;1.17;;;;;;;;;;5095341;28;20066;-84
2023/10/30 11:03:52;;;;;;;5.50;1.30;;;;;;;;;;5116152;28;20043;-84
2023/10/30 11:06:18;;;;;;;7.53;1.70;;;;;;;;;;5116505;28;20069;-84
2023/10/30 11:08:57;;;;;;;3.92;1.20;;;;;;;;;;5115440;28;20051;-84
2023/10/30 11:11:26;;;;;;;4.88;1.02;;;;;;;;;;5118754;28;20036;-84
2023/10/30 11:14:11;;;;;;;6.82;1.02;;;;;;;;;;5116984;28;20106;-83
2023/10/30 11:16:48;;;;;;;3.08;1.10;;;;;;;;;;5119199;28;20031;-83
2023/10/30 11:19:18;;;;;;;7.88;1.27;;;;;;;;;;5115481;28;20047;-83
2023/10/30 11:21:47;;;;;;;7.15;1.10;;;;;;;;;;5115054;28;20036;-84
2023/10/30 11:24:13;;;;;;;6.10;1.48;;;;;;;;;;5098752;28;20028;-83
2023/10/30 11:26:40;;;;;;;5.00;1.52;;;;;;;;;;5115749;28;20034;-84
2023/10/30 11:29:09;;;;;;;4.75;1.30;;;;;;;;;;5099247;28;20465;-82
2023/10/30 11:31:54;;;;;;;3.25;0.90;;;;;;;;;;5117272;28;20808;-84
2023/10/30 11:34:25;;;;;;;5.65;1.10;;;;;;;;;;5113754;27;20498;-83
2023/10/30 11:36:52;;;;;;;3.78;0.80;;;;;;;;;;5109998;28;20035;-83
2023/10/30 11:39:21;;;;;;;3.88;1.48;;;;;;;;;;5118786;28;20039;-83
2023/10/30 11:41:53;;;;;;;4.43;1.23;;;;;;;;;;5114050;28;20035;-83
2023/10/30 11:44:21;;;;;;;4.70;1.20;;;;;;;;;;5114916;28;20395;-83
2023/10/30 11:46:51;;;;;;;5.32;1.08;;;;;;;;;;5113304;28;20505;-83
2023/10/30 11:49:17;;;;;;;;;;;;;;;;;;5114584;28;20490;-84
2023/10/30 11:51:49;;;;;;;5.60;1.60;;;;;;;;;;5097983;28;20352;-84
2023/10/30 11:54:33;;;;;;;5.45;1.20;;;;;;;;;;5112872;28;20109;-83
2023/10/30 11:57:00;;;;;;;5.10;0.95;;;;;;;;;;5112978;28;20063;-82
2023/10/30 11:59:27;;;;;;;6.78;0.75;;;;;;;;;;5100381;28;20043;-82
2023/10/30 12:01:54;;;;;;;2.78;1.23;;;;;;;;;;5151062;27;20087;-82
2023/10/30 12:04:23;;;;;;;4.25;1.10;;;;;;;;;;5119077;28;20045;-82
2023/10/30 12:06:49;;;;;;;4.45;1.20;;;;;;;;;;5117923;28;20074;-82
2023/10/30 12:09:16;;;;;;;3.08;0.88;;;;;;;;;;5102744;28;20425;-83
2023/10/30 12:11:42;;;;;;;2.88;0.98;;;;;;;;;;5115659;28;20040;-84
2023/10/30 12:14:09;;;;;;;4.07;1.23;;;;;;;;;;5099115;28;20071;-84
2023/10/30 12:16:35;;;;;;;2.53;0.82;;;;;;;;;;5113330;28;20115;-83
2023/10/30 12:19:01;;;;;;;4.03;1.00;;;;;;;;;;5100370;28;20027;-84
2023/10/30 12:21:28;;;;;;;4.15;0.90;;;;;;;;;;5112207;28;20040;-82
2023/10/30 12:23:57;;;;;;;4.85;1.27;;;;;;;;;;5115298;28;20047;-83
2023/10/30 12:26:23;;;;;;;4.38;1.10;;;;;;;;;;5142706;27;20044;-82
2023/10/30 12:28:49;;;;;;;5.20;1.00;;;;;;;;;;5113172;27;20043;-83
2023/10/30 12:31:16;;;;;;;4.68;1.80;;;;;;;;;;5112397;28;20455;-86
2023/10/30 12:33:42;;;;;;;5.57;1.00;;;;;;;;;;5112524;28;20028;-86
2023/10/30 12:36:08;;;;;;;4.97;1.15;;;;;;;;;;5111089;28;20032;-86
2023/10/30 12:38:34;;;;;;;5.95;1.35;;;;;;;;;;5112647;28;20035;-87
2023/10/30 12:41:06;;;;;;;4.50;1.08;;;;;;;;;;5095567;28;20056;-86
2023/10/30 12:43:41;;;;;;;5.28;1.00;;;;;;;;;;5095540;28;20119;-86
2023/10/30 12:46:08;;;;;;;3.67;0.70;;;;;;;;;;5112059;28;20032;-86
2023/10/30 12:48:34;;;;;;;5.15;1.05;;;;;;;;;;5112257;28;20042;-86
2023/10/30 12:51:01;;;;;;;3.55;1.00;;;;;;;;;;5108461;28;20086;-87
2023/10/30 12:53:27;;;;;;;4.00;1.20;;;;;;;;;;5116158;28;20031;-86
2023/10/30 12:55:53;;;;;;;4.82;1.00;;;;;;;;;;5115628;28;20040;-87
2023/10/30 12:58:20;;;;;;;2.28;1.00;;;;;;;;;;5114198;28;20054;-86
2023/10/30 13:00:46;;;;;;;6.25;1.33;;;;;;;;;;5116522;28;20063;-86
2023/10/30 13:03:12;;;;;;;5.47;1.17;;;;;;;;;;5112532;28;20094;-86
2023/10/30 13:05:38;;;;;;;4.68;1.10;;;;;;;;;;5111999;28;20035;-86
2023/10/30 13:08:04;;;;;;;4.40;0.93;;;;;;;;;;5111708;28;20046;-86
2023/10/30 13:10:30;;;;;;;6.60;1.17;;;;;;;;;;5108308;28;20550;-86
2023/10/30 13:12:56;;;;;;;4.47;1.20;;;;;;;;;;5111839;28;20039;-86
2023/10/30 13:15:22;;;;;;;4.85;1.00;;;;;;;;;;5112273;28;20048;-86
2023/10/30 13:17:48;;;;;;;5.72;1.23;;;;;;;;;;5112073;28;20099;-86
2023/10/30 13:20:14;;;;;;;2.90;0.90;;;;;;;;;;5112160;28;20109;-86
2023/10/30 13:22:40;;;;;;;4.60;1.02;;;;;;;;;;5094240;28;20494;-86
2023/10/30 13:25:06;;;;;;;5.53;1.00;;;;;;;;;;5110502;28;20088;-86
2023/10/30 13:27:32;;;;;;;3.97;0.80;;;;;;;;;;5112482;28;20069;-86
2023/10/30 13:29:58;;;;;;;4.65;0.98;;;;;;;;;;5112224;28;20028;-86
2023/10/30 13:32:24;;;;;;;2.15;0.85;;;;;;;;;;5113832;28;20126;-86
2023/10/30 13:34:50;;;;;;;3.10;0.88;;;;;;;;;;5115888;28;20088;-86
2023/10/30 13:37:16;;;;;;;5.60;1.30;;;;;;;;;;5098788;28;20039;-86
2023/10/30 13:39:42;;;;;;;3.95;1.10;;;;;;;;;;5114093;28;20114;-86
2023/10/30 13:42:08;;;;;;;5.40;1.38;;;;;;;;;;5112696;27;20040;-86
2023/10/30 13:44:34;;;;;;;6.07;1.20;;;;;;;;;;5095896;28;20031;-85
2023/10/30 13:47:00;;;;;;;3.67;0.93;;;;;;;;;;5111515;28;20490;-85
2023/10/30 13:49:26;;;;;;;6.53;1.27;;;;;;;;;;5110905;28;20032;-85
2023/10/30 13:51:52;;;;;;;3.80;1.13;;;;;;;;;;5111668;28;20050;-84
2023/10/30 13:54:19;;;;;;;5.80;1.10;;;;;;;;;;5110375;27;20123;-86
2023/10/30 13:56:45;;;;;;;3.83;0.85;;;;;;;;;;5112115;28;20149;-83
2023/10/30 13:59:11;;;;;;;4.32;1.45;;;;;;;;;;5114032;28;20482;-83
2023/10/30 14:01:37;;;;;;;3.00;0.80;;;;;;;;;;5116573;28;20121;-83
2023/10/30 14:04:03;;;;;;;1.90;0.50;;;;;;;;;;5113704;28;20379;-83
2023/10/30 14:06:29;;;;;;;4.40;0.73;;;;;;;;;;5114717;28;20070;-83
2023/10/30 14:08:55;;;;;;;2.47;0.75;;;;;;;;;;5114355;28;20166;-83
2023/10/30 14:11:23;;;;;;;2.90;0.70;;;;;;;;;;5113908;28;20048;-83
2023/10/30 14:13:49;;;;;;;2.88;1.00;;;;;;;;;;5112657;28;20074;-83
2023/10/30 14:16:15;;;;;;;2.70;1.13;;;;;;;;;;5113668;28;20040;-83
2023/10/30 14:18:41;;;;;;;2.90;1.00;;;;;;;;;;5107650;28;20047;-82
2023/10/30 14:21:07;;;;;;;3.08;0.70;;;;;;;;;;5114044;28;20036;-83
2023/10/30 14:23:33;;;;;;;2.60;0.70;;;;;;;;;;5116036;28;20042;-82
2023/10/30 14:25:59;;;;;;;2.50;0.90;;;;;;;;;;5115974;28;20044;-82
2023/10/30 14:28:25;;;;;;;3.92;0.73;;;;;;;;;;5114850;28;20044;-83
2023/10/30 14:30:51;;;;;;;2.78;1.00;;;;;;;;;;5115066;28;20035;-82
2023/10/30 14:33:17;;;;;;;5.68;0.85;;;;;;;;;;5113656;28;20059;-83
2023/10/30 14:35:44;;;;;;;3.97;0.93;;;;;;;;;;5113373;28;20054;-83
2023/10/30 14:38:10;;;;;;;1.60;0.85;;;;;;;;;;5114660;28;20044;-83
2023/10/30 14:40:36;;;;;;;2.90;0.80;;;;;;;;;;5116649;28;20062;-83